x

Cape Suckling - 35 Nm Se Of Kayak Is, Ak (46082) Wave Buoy

1:50am - Fri 29th Aug 2014 All times are AKDT. -8 hours from GMT.

  • Sig Wave height 11.5ft
  • Peak Period 8s
  • Average Period 6s
  • Wind
    29mph, 34mph gusts
  • Sea Temp 58°f
  • Air Temp 54°f
  • Sea Pressure 1002.4mb
  • Cape Suckling - 35 Nm Se Of Kayak Is, Ak
  • Cape Suckling - 35 Nm Se Of Kayak Is, Ak

More Historic Weather Station data

Upgrade to MSW Pro to gain access to the past 30 days of data for over 8000 Wavebouys and Weather Stations around the globe.

Join Pro

Comparision Forecast

View Surf forecast
   
Fri 08/29 1:50am 11.5ft 8s 6s 29 34 mph 1002.4mb 58f 54f
12:50am 11ft 8s 6s 29 36 mph 1002.9mb 58f 54f
Thu 08/28 11:50pm 11.5ft 7s 6s 31 36 mph 1003.4mb 58f 54f
10:50pm 12ft 7s 6s 31 38 mph 1003.8mb 58f 55f
9:50pm 12ft 7s 6s 31 36 mph 1004.1mb 58f 55f
8:50pm 9.5ft 7s 6s 31 38 mph 1004.3mb 58f 55f
7:50pm 10ft 6s 6s 29 38 mph 1004.9mb 58f 55f
6:50pm 10ft 7s 6s 27 34 mph 1005.2mb 58f 56f
5:50pm 10ft 7s 6s 27 36 mph 1005.4mb 58f 56f
4:50pm 9ft 6s 5s 27 31 mph 1005.6mb 58f 56f
3:50pm 9ft 6s 5s 25 29 mph 1006.1mb 58f 55f
2:50pm 10ft 6s 5s 25 31 mph 1006.5mb 58f 56f
1:50pm 8.5ft 8s 5s 22 27 mph 1007mb 58f 55f
12:50pm 7.5ft 7s 5s 25 29 mph 1007.3mb 58f 56f
11:50am 7ft 6s 5s 22 27 mph 1007.7mb 58f 56f
10:50am 7ft 6s 5s 20 22 mph 1008.1mb 58f 56f
9:50am 7ft 6s 5s 16 20 mph 1008.5mb 58f 55f
8:50am 6.5ft 6s 5s 18 20 mph 1008.8mb 58f 56f
7:50am 6ft 6s 5s 16 20 mph 1009.2mb 58f 56f
6:50am 6ft 6s 5s 18 22 mph 1009.2mb 58f 56f
5:50am 6ft 7s 5s 16 20 mph 1009.5mb 58f 55f
4:50am 6ft 6s 5s 20 25 mph 1009.7mb 58f 56f
3:50am 7ft 6s 5s 20 22 mph 1010.1mb 58f 56f
2:50am 7ft 6s 5s 25 29 mph 1010.5mb 58f 56f
1:50am 6.5ft 6s 5s 25 29 mph 1011.3mb 58f 56f
12:50am 6.5ft 5s 4s 27 40 mph 1011.8mb 58f 56f
Wed 08/27 11:50pm 5ft 5s 4s 27 34 mph 1012.2mb 58f 56f
10:50pm 4.5ft 5s 4s 22 27 mph 1012.9mb 58f 57f
9:50pm 4ft 4s 4s 20 25 mph 1013.7mb 59f 57f
8:50pm 4ft 4s 4s 18 20 mph 1014.1mb 59f 57f
7:50pm 3.5ft 4s 4s 18 20 mph 1014.4mb 59f 57f
6:50pm 4ft 4s 5s 16 18 mph 1015mb 59f 57f
5:50pm 3.5ft 7s 5s 16 18 mph 1015.4mb 59f 57f
4:50pm 3.5ft 7s 5s 11 16 mph 1015.7mb 59f 57f
3:50pm 4ft 7s 5s 18 20 mph 1016.4mb 59f 56f
2:50pm 4ft 8s 5s 16 18 mph 1016.7mb 58f 56f
1:50pm 3.5ft 8s 5s 13 16 mph 1016.8mb 58f 56f
12:50pm 4ft 8s 5s 13 16 mph 1017.1mb 58f 56f
11:50am 3.5ft 8s 5s 13 16 mph 1017.3mb 58f 56f
10:50am 3.5ft 8s 6s 13 16 mph 1017.2mb 58f 56f
9:50am 4ft 11s 7s 9 13 mph 1017mb 58f 56f
8:50am 4ft 7s 7s 9 11 mph 1017mb 58f 56f
7:50am 4ft 8s 6s 7 9 mph 1017mb 58f 56f
6:50am 3.5ft 8s 6s 7 9 mph 1016.9mb 58f 56f
5:50am 4ft 7s 6s 4 7 mph 1016.8mb 58f 56f
4:50am 4.5ft 8s 6s 4
mph
1016.8mb 58f 56f
3:50am 4.5ft 8s 6s 2
mph
1016.6mb 58f 55f
2:50am 4.5ft 8s 6s 4
mph
1016.5mb 58f 55f
1:50am 4.5ft 9s 6s 2 4 mph 1016.1mb 58f 55f
12:50am 4.5ft 8s 6s  -  mph 1015.9mb 58f 55f
Tue 08/26 11:50pm 4ft 9s 6s  -  2 mph 1015.7mb 58f 55f
10:50pm 4ft 8s 6s  -  2 mph 1015.5mb 59f 55f
9:50pm 4.5ft 8s 6s  -  2 mph 1015.3mb 59f 55f
8:50pm 4.5ft 9s 6s  -  2 mph 1015mb 59f 56f
7:50pm 5ft 10s 7s 2
mph
1014.6mb 59f 56f
6:50pm 4.5ft 10s 6s 4
mph
1014.4mb 59f 56f
5:50pm 4.5ft 9s 6s 2 4 mph 1014.3mb 59f 56f
4:50pm 4.5ft 9s 6s 2 4 mph 1014.1mb 59f 56f
3:50pm 5ft 10s 6s 4 7 mph 1014mb 59f 56f
2:50pm 5ft 9s 6s 4 7 mph 1013.7mb 58f 56f
1:50pm 5ft 8s 6s 7 9 mph 1013.3mb 58f 56f
12:50pm 5.5ft 8s 6s 7 9 mph 1012.8mb 58f 56f
11:50am 5.5ft 9s 5s 9 11 mph 1012.2mb 58f 56f
10:50am 6ft 9s 6s 9 11 mph 1011.7mb 58f 55f
9:50am 6ft 8s 6s 9 13 mph 1011.1mb 58f 56f
8:50am 5.5ft 9s 6s 9 11 mph 1010.7mb 58f 55f
7:50am 6ft 9s 6s 13 16 mph 1010.2mb 58f 55f
6:50am 6ft 9s 6s 13 18 mph 1009.7mb 58f 55f
5:50am 5ft 8s 5s 16 18 mph 1009.5mb 58f 55f
4:50am 5ft 8s 6s 11 13 mph 1009.3mb 58f 55f
3:50am 4.5ft 8s 6s 13 16 mph 1009.1mb 58f 55f
2:50am 5ft 8s 6s 9 11 mph 1009.1mb 58f 55f
1:50am 5ft 8s 6s 7
mph
1009.1mb 58f 55f
12:50am 5ft 9s 6s 7 9 mph 1009.2mb 58f 55f
Mon 08/25 11:50pm 6ft 9s 6s 7 9 mph 1009.1mb 58f 55f
10:50pm 6ft 9s 6s 4 7 mph 1009.3mb 58f 54f
9:50pm 7ft 8s 6s 9 11 mph 1009.3mb 58f 56f
8:50pm 6.5ft 8s 6s 11 13 mph 1009.3mb 58f 56f
7:50pm 7ft 8s 6s 9 11 mph 1009.2mb 58f 56f
6:50pm 7ft 8s 6s 11 13 mph 1009.4mb 58f 57f
5:50pm 7.5ft 8s 6s 11 13 mph 1009.5mb 58f 57f
4:50pm 7ft 8s 6s 11 13 mph 1009.6mb 58f 57f
3:50pm 6.5ft 8s 6s 11 13 mph 1009.7mb 58f 56f
2:50pm 7ft 9s 6s 11 13 mph 1009.9mb 58f 57f
1:50pm 6ft 9s 6s 9 11 mph 1009.9mb 58f 56f
12:50pm 6ft 9s 6s 11 13 mph 1010mb 58f 57f
11:50am 6ft 8s 6s 9 11 mph 1010.1mb 58f 57f